Airfield :
LOGIN :

Register | Disclaimer

   EN    FR    IT 

 










Legend :    VFR   Marginal VFR   IFR   Intensive IFR   Very Intensive IFR
Visi :
Ceiling :
>= 8 km
>= 3000ft
5 to 8 km
1000 to 3000 ft
1500m to 5 km
500 to 1000 ft
800 to 1500m
200 to 500 ft
< 800m
< 200 ft
Symbols :   Thunderstorms  Fog  Heavy snow  Heavy precipitations  Wind > 20 kt
SIGMETs :     Misc.  Thunderstorms  Icing  Turbulence  Mountain Waves  Volcanic Ashes






- Airport Elevation : 92 ft


EGXZ - RAP Topcliffe

CURRENT METAR :
  • 162020Z AUTO 24009KT 5000 RA OVC045/// 12/10 Q1002

EXPIRED METARs :
  • 161950Z AUTO 24009KT 9999 RA OVC047/// 13/10 Q1001
  • 161920Z AUTO 25007KT 9000 -RA OVC044/// 13/10 Q1001
  • 161850Z AUTO 25009KT 9999 -RA OVC053/// 15/09 Q1001
  • 161820Z AUTO 25012KT 9999 FEW038/// OVC100/// 15/08 Q1001
  • 161750Z AUTO 25013KT 9999 FEW044/// SCT120/// 16/08 Q1000
  • 161720Z AUTO 25013KT 9999 FEW042/// 16/07 Q1000
  • 161650Z AUTO 25014KT 9999 SCT045/// 17/07 Q1000
  • 161620Z AUTO 25015KT 9999 SCT044/// 17/07 Q1000
  • 161550Z AUTO 25017KT 9999 BKN042/// 18/07 Q1000

Expired Forecast.



MET'MAP, your aeronautical weather chart ! - Copyright ORBIFLY December 2007 - Disclaimer

ORBIFLY MET'MAP TEAM :

Programming & Development : Alexandra Zaïnal
Original concept : Baudouin d'Aumeries
Technical & hardware support : Manuel Goepfert
Assistance : Marc-Olivier Méhu




SOURCES & CREDITS :

   NOAA